sensor_id;sensor_type;location;lat;lon;timestamp;pressure;altitude;pressure_sealevel;temperature;humidity
81397;BME280;70852;49.908;8.126;2023-08-08T00:00:44;100323.13;;;14.26;68.98
81397;BME280;70852;49.908;8.126;2023-08-08T00:03:09;100317.78;;;14.21;68.90
81397;BME280;70852;49.908;8.126;2023-08-08T00:05:37;100326.72;;;14.27;69.20
81397;BME280;70852;49.908;8.126;2023-08-08T00:08:02;100330.44;;;14.31;69.88
81397;BME280;70852;49.908;8.126;2023-08-08T00:10:28;100332.38;;;14.30;68.85
81397;BME280;70852;49.908;8.126;2023-08-08T00:12:53;100326.84;;;14.30;69.48
81397;BME280;70852;49.908;8.126;2023-08-08T00:15:20;100325.44;;;14.24;68.62
81397;BME280;70852;49.908;8.126;2023-08-08T00:17:46;100321.94;;;14.15;68.33
81397;BME280;70852;49.908;8.126;2023-08-08T00:20:13;100318.34;;;14.15;69.19
81397;BME280;70852;49.908;8.126;2023-08-08T00:22:44;100336.16;;;14.14;69.77
81397;BME280;70852;49.908;8.126;2023-08-08T00:25:11;100328.34;;;14.28;69.59
81397;BME280;70852;49.908;8.126;2023-08-08T00:27:37;100321.50;;;14.25;69.66
81397;BME280;70852;49.908;8.126;2023-08-08T00:30:07;100316.09;;;14.29;70.36
81397;BME280;70852;49.908;8.126;2023-08-08T00:32:33;100322.53;;;14.21;69.62
81397;BME280;70852;49.908;8.126;2023-08-08T00:35:00;100326.22;;;14.13;70.64
81397;BME280;70852;49.908;8.126;2023-08-08T00:37:26;100316.25;;;14.12;70.87
81397;BME280;70852;49.908;8.126;2023-08-08T00:39:53;100323.78;;;14.11;71.06
81397;BME280;70852;49.908;8.126;2023-08-08T00:42:21;100319.03;;;14.12;70.42
81397;BME280;70852;49.908;8.126;2023-08-08T00:44:46;100328.78;;;14.18;69.58
81397;BME280;70852;49.908;8.126;2023-08-08T00:47:12;100320.78;;;14.16;70.15
81397;BME280;70852;49.908;8.126;2023-08-08T00:49:37;100313.81;;;14.10;70.09
81397;BME280;70852;49.908;8.126;2023-08-08T00:52:06;100316.00;;;14.05;70.36
81397;BME280;70852;49.908;8.126;2023-08-08T00:54:32;100312.13;;;14.18;70.17
81397;BME280;70852;49.908;8.126;2023-08-08T00:56:58;100314.56;;;14.19;70.13
81397;BME280;70852;49.908;8.126;2023-08-08T00:59:23;100310.50;;;14.17;70.08
81397;BME280;70852;49.908;8.126;2023-08-08T01:01:49;100309.34;;;14.18;71.02
81397;BME280;70852;49.908;8.126;2023-08-08T01:04:16;100302.50;;;14.15;69.95
81397;BME280;70852;49.908;8.126;2023-08-08T01:09:30;100316.53;;;14.19;71.00
81397;BME280;70852;49.908;8.126;2023-08-08T01:11:58;100313.00;;;14.10;70.90
81397;BME280;70852;49.908;8.126;2023-08-08T01:14:28;100314.56;;;13.99;71.82
81397;BME280;70852;49.908;8.126;2023-08-08T01:16:58;100307.06;;;13.99;71.39
81397;BME280;70852;49.908;8.126;2023-08-08T01:19:27;100313.31;;;13.96;71.93
81397;BME280;70852;49.908;8.126;2023-08-08T01:22:01;100305.66;;;13.93;72.04
81397;BME280;70852;49.908;8.126;2023-08-08T01:24:31;100308.03;;;13.82;71.91
81397;BME280;70852;49.908;8.126;2023-08-08T01:26:59;100322.59;;;13.79;72.38
81397;BME280;70852;49.908;8.126;2023-08-08T01:29:26;100313.19;;;13.72;72.97
81397;BME280;70852;49.908;8.126;2023-08-08T01:31:52;100317.03;;;13.79;72.46
81397;BME280;70852;49.908;8.126;2023-08-08T01:34:20;100316.13;;;13.75;72.33
81397;BME280;70852;49.908;8.126;2023-08-08T01:37:13;100303.91;;;13.68;72.64
81397;BME280;70852;49.908;8.126;2023-08-08T01:39:39;100307.72;;;13.63;73.02
81397;BME280;70852;49.908;8.126;2023-08-08T01:42:06;100300.28;;;13.55;73.09
81397;BME280;70852;49.908;8.126;2023-08-08T01:44:36;100306.03;;;13.50;72.83
81397;BME280;70852;49.908;8.126;2023-08-08T01:47:04;100304.22;;;13.54;73.15
81397;BME280;70852;49.908;8.126;2023-08-08T01:49:30;100310.34;;;13.39;72.52
81397;BME280;70852;49.908;8.126;2023-08-08T01:51:57;100310.34;;;13.39;73.15
81397;BME280;70852;49.908;8.126;2023-08-08T01:54:27;100315.09;;;13.38;73.36
81397;BME280;70852;49.908;8.126;2023-08-08T01:56:52;100318.59;;;13.27;73.78
81397;BME280;70852;49.908;8.126;2023-08-08T01:59:20;100324.53;;;13.16;73.80
81397;BME280;70852;49.908;8.126;2023-08-08T02:01:48;100319.47;;;13.18;74.21
81397;BME280;70852;49.908;8.126;2023-08-08T02:04:15;100314.81;;;13.02;74.20
81397;BME280;70852;49.908;8.126;2023-08-08T02:06:43;100314.38;;;12.91;74.23
81397;BME280;70852;49.908;8.126;2023-08-08T02:09:08;100302.06;;;12.80;74.81
81397;BME280;70852;49.908;8.126;2023-08-08T02:11:35;100301.06;;;12.76;75.29
81397;BME280;70852;49.908;8.126;2023-08-08T02:14:04;100302.94;;;12.63;75.00
81397;BME280;70852;49.908;8.126;2023-08-08T02:16:32;100298.06;;;12.52;75.63
81397;BME280;70852;49.908;8.126;2023-08-08T02:18:57;100305.44;;;12.48;75.95
81397;BME280;70852;49.908;8.126;2023-08-08T02:21:22;100295.63;;;12.50;75.96
81397;BME280;70852;49.908;8.126;2023-08-08T02:23:50;100295.22;;;12.39;75.89
81397;BME280;70852;49.908;8.126;2023-08-08T02:26:15;100293.91;;;12.37;76.33
81397;BME280;70852;49.908;8.126;2023-08-08T02:28:43;100295.09;;;12.27;76.31
81397;BME280;70852;49.908;8.126;2023-08-08T02:31:08;100306.16;;;12.27;76.41
81397;BME280;70852;49.908;8.126;2023-08-08T02:33:36;100299.81;;;12.27;76.52
81397;BME280;70852;49.908;8.126;2023-08-08T02:36:01;100296.72;;;12.20;76.74
81397;BME280;70852;49.908;8.126;2023-08-08T02:38:27;100293.84;;;11.99;77.37
81397;BME280;70852;49.908;8.126;2023-08-08T02:40:52;100291.06;;;11.99;77.29
81397;BME280;70852;49.908;8.126;2023-08-08T02:43:22;100283.44;;;11.96;77.17
81397;BME280;70852;49.908;8.126;2023-08-08T02:45:47;100290.75;;;11.92;77.11
81397;BME280;70852;49.908;8.126;2023-08-08T02:48:12;100286.66;;;11.98;77.18
81397;BME280;70852;49.908;8.126;2023-08-08T02:50:43;100286.84;;;12.01;77.12
81397;BME280;70852;49.908;8.126;2023-08-08T02:53:13;100286.38;;;11.91;77.46
81397;BME280;70852;49.908;8.126;2023-08-08T02:55:40;100288.63;;;11.97;77.32
81397;BME280;70852;49.908;8.126;2023-08-08T02:58:06;100291.56;;;11.92;77.58
81397;BME280;70852;49.908;8.126;2023-08-08T03:00:31;100291.56;;;11.92;77.32
81397;BME280;70852;49.908;8.126;2023-08-08T03:02:56;100284.72;;;11.90;77.62
81397;BME280;70852;49.908;8.126;2023-08-08T03:05:22;100285.88;;;11.71;78.27
81397;BME280;70852;49.908;8.126;2023-08-08T03:07:47;100280.34;;;11.63;78.92
81397;BME280;70852;49.908;8.126;2023-08-08T03:10:17;100279.03;;;11.69;78.76
81397;BME280;70852;49.908;8.126;2023-08-08T03:12:42;100277.09;;;11.61;79.13
81397;BME280;70852;49.908;8.126;2023-08-08T03:15:13;100274.00;;;11.62;79.25
81397;BME280;70852;49.908;8.126;2023-08-08T03:17:38;100282.13;;;11.67;78.89
81397;BME280;70852;49.908;8.126;2023-08-08T03:20:04;100288.47;;;11.68;78.65
81397;BME280;70852;49.908;8.126;2023-08-08T03:22:34;100272.38;;;11.70;78.91
81397;BME280;70852;49.908;8.126;2023-08-08T03:24:59;100282.63;;;11.61;78.64
81397;BME280;70852;49.908;8.126;2023-08-08T03:27:27;100280.69;;;11.53;78.80
81397;BME280;70852;49.908;8.126;2023-08-08T03:29:52;100269.44;;;11.41;79.72
81397;BME280;70852;49.908;8.126;2023-08-08T03:32:18;100283.59;;;11.39;80.03
81397;BME280;70852;49.908;8.126;2023-08-08T03:34:45;100292.03;;;11.34;80.44
81397;BME280;70852;49.908;8.126;2023-08-08T03:37:10;100279.84;;;11.35;79.99
81397;BME280;70852;49.908;8.126;2023-08-08T03:39:38;100286.50;;;11.34;79.97
81397;BME280;70852;49.908;8.126;2023-08-08T03:42:08;100297.41;;;11.30;80.25
81397;BME280;70852;49.908;8.126;2023-08-08T03:44:33;100294.47;;;11.27;80.12
81397;BME280;70852;49.908;8.126;2023-08-08T03:46:59;100291.06;;;11.30;80.06
81397;BME280;70852;49.908;8.126;2023-08-08T03:49:25;100288.44;;;11.25;79.93
81397;BME280;70852;49.908;8.126;2023-08-08T03:51:52;100289.25;;;11.17;80.38
81397;BME280;70852;49.908;8.126;2023-08-08T03:54:20;100288.75;;;11.06;80.46
81397;BME280;70852;49.908;8.126;2023-08-08T03:56:48;100287.13;;;11.05;80.85
81397;BME280;70852;49.908;8.126;2023-08-08T03:59:13;100282.91;;;11.08;80.72
81397;BME280;70852;49.908;8.126;2023-08-08T04:01:38;100284.53;;;11.00;80.74
81397;BME280;70852;49.908;8.126;2023-08-08T04:04:04;100281.09;;;11.03;80.52
81397;BME280;70852;49.908;8.126;2023-08-08T04:06:31;100284.69;;;11.04;80.72
81397;BME280;70852;49.908;8.126;2023-08-08T04:08:59;100278.34;;;11.03;80.31
81397;BME280;70852;49.908;8.126;2023-08-08T04:11:28;100293.47;;;11.06;80.81
81397;BME280;70852;49.908;8.126;2023-08-08T04:13:56;100284.84;;;10.90;80.79
81397;BME280;70852;49.908;8.126;2023-08-08T04:16:24;100288.41;;;10.90;81.24
81397;BME280;70852;49.908;8.126;2023-08-08T04:18:52;100281.91;;;10.95;81.30
81397;BME280;70852;49.908;8.126;2023-08-08T04:21:17;100289.25;;;10.99;81.25
81397;BME280;70852;49.908;8.126;2023-08-08T04:23:42;100289.75;;;11.02;80.84
81397;BME280;70852;49.908;8.126;2023-08-08T04:26:08;100290.22;;;11.04;81.10
81397;BME280;70852;49.908;8.126;2023-08-08T04:28:33;100287.81;;;11.11;81.22
81397;BME280;70852;49.908;8.126;2023-08-08T04:30:58;100285.69;;;11.16;80.73
81397;BME280;70852;49.908;8.126;2023-08-08T04:33:26;100288.75;;;11.15;80.57
81397;BME280;70852;49.908;8.126;2023-08-08T04:35:51;100293.16;;;11.16;80.56
81397;BME280;70852;49.908;8.126;2023-08-08T04:38:22;100297.06;;;11.15;80.92
81397;BME280;70852;49.908;8.126;2023-08-08T04:40:47;100294.28;;;11.15;80.70
81397;BME280;70852;49.908;8.126;2023-08-08T04:43:14;100290.56;;;11.11;80.80
81397;BME280;70852;49.908;8.126;2023-08-08T04:45:42;100294.97;;;11.12;81.05
81397;BME280;70852;49.908;8.126;2023-08-08T04:48:07;100285.38;;;11.18;80.29
81397;BME280;70852;49.908;8.126;2023-08-08T04:50:33;100283.41;;;11.27;80.10
81397;BME280;70852;49.908;8.126;2023-08-08T04:53:03;100291.56;;;11.32;81.08
81397;BME280;70852;49.908;8.126;2023-08-08T04:55:28;100287.69;;;11.33;80.38
81397;BME280;70852;49.908;8.126;2023-08-08T04:57:53;100286.19;;;11.35;79.69
81397;BME280;70852;49.908;8.126;2023-08-08T05:00:21;100286.03;;;11.49;80.26
81397;BME280;70852;49.908;8.126;2023-08-08T05:02:46;100287.84;;;11.54;79.95
81397;BME280;70852;49.908;8.126;2023-08-08T05:05:11;100281.16;;;11.55;80.24
81397;BME280;70852;49.908;8.126;2023-08-08T05:07:37;100282.13;;;11.67;79.66
81397;BME280;70852;49.908;8.126;2023-08-08T05:10:03;100285.88;;;11.71;79.94
81397;BME280;70852;49.908;8.126;2023-08-08T05:12:28;100273.50;;;11.78;80.00
81397;BME280;70852;49.908;8.126;2023-08-08T05:14:56;100282.78;;;11.90;80.09
81397;BME280;70852;49.908;8.126;2023-08-08T05:17:26;100286.66;;;11.98;78.99
81397;BME280;70852;49.908;8.126;2023-08-08T05:19:54;100284.22;;;12.05;79.23
81397;BME280;70852;49.908;8.126;2023-08-08T05:22:22;100289.91;;;12.17;78.41
81397;BME280;70852;49.908;8.126;2023-08-08T05:24:47;100283.84;;;12.24;78.33
81397;BME280;70852;49.908;8.126;2023-08-08T05:27:12;100278.59;;;12.31;78.41
81397;BME280;70852;49.908;8.126;2023-08-08T05:29:38;100279.75;;;12.38;78.09
81397;BME280;70852;49.908;8.126;2023-08-08T05:32:07;100271.53;;;12.51;77.45
81397;BME280;70852;49.908;8.126;2023-08-08T05:34:37;100272.13;;;12.65;77.17
81397;BME280;70852;49.908;8.126;2023-08-08T05:37:03;100272.72;;;12.79;77.07
81397;BME280;70852;49.908;8.126;2023-08-08T05:39:29;100274.78;;;12.82;76.09
81397;BME280;70852;49.908;8.126;2023-08-08T05:41:58;100280.16;;;12.87;76.64
81397;BME280;70852;49.908;8.126;2023-08-08T05:44:26;100269.81;;;12.96;76.19
81397;BME280;70852;49.908;8.126;2023-08-08T05:46:53;100268.59;;;13.14;75.11
81397;BME280;70852;49.908;8.126;2023-08-08T05:49:18;100271.31;;;13.23;74.74
81397;BME280;70852;49.908;8.126;2023-08-08T05:51:46;100280.31;;;13.41;75.02
81397;BME280;70852;49.908;8.126;2023-08-08T05:54:14;100273.06;;;13.48;74.81
81397;BME280;70852;49.908;8.126;2023-08-08T05:56:41;100279.25;;;13.54;74.31
81397;BME280;70852;49.908;8.126;2023-08-08T05:59:10;100282.34;;;13.73;74.01
81397;BME280;70852;49.908;8.126;2023-08-08T06:01:35;100276.56;;;13.78;72.91
81397;BME280;70852;49.908;8.126;2023-08-08T06:04:00;100277.31;;;13.87;73.34
81397;BME280;70852;49.908;8.126;2023-08-08T06:06:28;100284.06;;;14.11;71.31
81397;BME280;70852;49.908;8.126;2023-08-08T06:08:54;100280.41;;;14.19;70.04
81397;BME280;70852;49.908;8.126;2023-08-08T06:11:19;100278.69;;;14.26;70.30
81397;BME280;70852;49.908;8.126;2023-08-08T06:13:48;100281.69;;;14.34;70.79
81397;BME280;70852;49.908;8.126;2023-08-08T06:16:14;100277.00;;;14.46;69.84
81397;BME280;70852;49.908;8.126;2023-08-08T06:18:40;100277.84;;;14.59;70.45
81397;BME280;70852;49.908;8.126;2023-08-08T06:21:08;100275.28;;;14.66;68.93
81397;BME280;70852;49.908;8.126;2023-08-08T06:23:36;100283.03;;;14.73;68.77
81397;BME280;70852;49.908;8.126;2023-08-08T06:26:01;100276.31;;;14.74;68.84
81397;BME280;70852;49.908;8.126;2023-08-08T06:28:27;100278.75;;;14.75;67.66
81397;BME280;70852;49.908;8.126;2023-08-08T06:30:52;100275.38;;;15.06;67.87
81397;BME280;70852;49.908;8.126;2023-08-08T06:33:22;100268.91;;;15.14;66.83
81397;BME280;70852;49.908;8.126;2023-08-08T06:35:47;100268.59;;;15.56;66.47
81397;BME280;70852;49.908;8.126;2023-08-08T06:38:15;100275.56;;;16.05;63.35
81397;BME280;70852;49.908;8.126;2023-08-08T06:40:43;100266.28;;;16.61;63.18
81397;BME280;70852;49.908;8.126;2023-08-08T06:43:08;100264.94;;;16.39;60.91
81397;BME280;70852;49.908;8.126;2023-08-08T06:45:33;100267.44;;;16.44;60.82
81397;BME280;70852;49.908;8.126;2023-08-08T06:47:58;100264.41;;;16.80;59.06
81397;BME280;70852;49.908;8.126;2023-08-08T06:50:26;100268.72;;;17.29;59.18
81397;BME280;70852;49.908;8.126;2023-08-08T06:52:54;100273.81;;;17.42;57.43
81397;BME280;70852;49.908;8.126;2023-08-08T06:55:20;100264.13;;;17.36;57.37
81397;BME280;70852;49.908;8.126;2023-08-08T06:57:46;100257.66;;;18.09;56.21
81397;BME280;70852;49.908;8.126;2023-08-08T07:00:14;100256.56;;;18.37;54.69
81397;BME280;70852;49.908;8.126;2023-08-08T07:02:39;100249.13;;;18.21;54.10
81397;BME280;70852;49.908;8.126;2023-08-08T07:05:06;100261.34;;;17.94;55.13
81397;BME280;70852;49.908;8.126;2023-08-08T07:07:37;100261.59;;;17.66;54.75
81397;BME280;70852;49.908;8.126;2023-08-08T07:10:05;100261.66;;;17.89;55.01
81397;BME280;70852;49.908;8.126;2023-08-08T07:12:34;100264.28;;;18.01;54.16
81397;BME280;70852;49.908;8.126;2023-08-08T07:15:06;100267.75;;;17.95;54.08
81397;BME280;70852;49.908;8.126;2023-08-08T07:17:32;100262.78;;;18.49;52.94
81397;BME280;70852;49.908;8.126;2023-08-08T07:19:57;100254.38;;;18.95;52.38
81397;BME280;70852;49.908;8.126;2023-08-08T07:22:23;100256.72;;;19.19;50.56
81397;BME280;70852;49.908;8.126;2023-08-08T07:24:48;100252.91;;;19.05;49.84
81397;BME280;70852;49.908;8.126;2023-08-08T07:27:13;100253.50;;;19.17;49.21
81397;BME280;70852;49.908;8.126;2023-08-08T07:29:39;100248.81;;;18.98;50.90
81397;BME280;70852;49.908;8.126;2023-08-08T07:32:09;100254.28;;;19.44;48.13
81397;BME280;70852;49.908;8.126;2023-08-08T07:34:37;100243.38;;;19.39;48.24
81397;BME280;70852;49.908;8.126;2023-08-08T07:37:08;100252.63;;;18.87;49.71
81397;BME280;70852;49.908;8.126;2023-08-08T07:39:35;100249.78;;;18.83;50.87
81397;BME280;70852;49.908;8.126;2023-08-08T07:42:00;100251.72;;;19.32;48.06
81397;BME280;70852;49.908;8.126;2023-08-08T07:44:28;100243.34;;;19.06;49.61
81397;BME280;70852;49.908;8.126;2023-08-08T07:46:54;100253.25;;;19.56;47.05
81397;BME280;70852;49.908;8.126;2023-08-08T07:49:19;100251.69;;;19.92;46.62
81397;BME280;70852;49.908;8.126;2023-08-08T07:51:44;100251.59;;;20.18;45.90
81397;BME280;70852;49.908;8.126;2023-08-08T07:54:10;100245.50;;;21.01;44.27
81397;BME280;70852;49.908;8.126;2023-08-08T07:56:37;100252.31;;;20.96;43.33
81397;BME280;70852;49.908;8.126;2023-08-08T07:59:14;100257.56;;;21.74;42.02
81397;BME280;70852;49.908;8.126;2023-08-08T08:05:01;100240.03;;;20.23;45.10
81397;BME280;70852;49.908;8.126;2023-08-08T08:11:27;100239.47;;;20.44;45.93
81397;BME280;70852;49.908;8.126;2023-08-08T08:14:07;100244.19;;;20.84;46.10
81397;BME280;70852;49.908;8.126;2023-08-08T08:16:37;100257.56;;;20.54;44.26
81397;BME280;70852;49.908;8.126;2023-08-08T08:21:57;100245.31;;;19.95;44.94
81397;BME280;70852;49.908;8.126;2023-08-08T08:31:33;100237.91;;;20.13;45.75
81397;BME280;70852;49.908;8.126;2023-08-08T08:43:41;100236.41;;;19.86;46.60
81397;BME280;70852;49.908;8.126;2023-08-08T08:46:48;100228.16;;;20.00;46.80
81397;BME280;70852;49.908;8.126;2023-08-08T08:52:22;100229.06;;;21.75;42.55
81397;BME280;70852;49.908;8.126;2023-08-08T09:01:27;100241.38;;;20.84;44.78
81397;BME280;70852;49.908;8.126;2023-08-08T09:04:49;100239.31;;;21.32;43.85
81397;BME280;70852;49.908;8.126;2023-08-08T09:08:00;100236.50;;;21.29;43.49
81397;BME280;70852;49.908;8.126;2023-08-08T09:11:10;100233.38;;;20.86;44.61
81397;BME280;70852;49.908;8.126;2023-08-08T09:14:03;100246.69;;;21.65;43.74
81397;BME280;70852;49.908;8.126;2023-08-08T09:17:30;100244.09;;;21.25;44.32
81397;BME280;70852;49.908;8.126;2023-08-08T09:20:45;100231.25;;;22.21;43.30
81397;BME280;70852;49.908;8.126;2023-08-08T09:23:45;100240.94;;;22.55;42.38
81397;BME280;70852;49.908;8.126;2023-08-08T09:26:47;100238.09;;;23.02;41.01
81397;BME280;70852;49.908;8.126;2023-08-08T09:32:18;100237.28;;;22.37;42.34
81397;BME280;70852;49.908;8.126;2023-08-08T09:34:46;100224.44;;;22.57;42.07
81397;BME280;70852;49.908;8.126;2023-08-08T09:41:04;100214.41;;;22.53;43.48
81397;BME280;70852;49.908;8.126;2023-08-08T09:46:39;100226.88;;;22.66;42.13
81397;BME280;70852;49.908;8.126;2023-08-08T09:49:05;100231.66;;;22.48;41.76
81397;BME280;70852;49.908;8.126;2023-08-08T09:51:31;100228.81;;;22.12;42.79
81397;BME280;70852;49.908;8.126;2023-08-08T09:54:01;100226.78;;;22.09;42.43
81397;BME280;70852;49.908;8.126;2023-08-08T09:56:28;100219.19;;;22.49;42.40
81397;BME280;70852;49.908;8.126;2023-08-08T09:58:57;100215.97;;;22.36;42.85
81397;BME280;70852;49.908;8.126;2023-08-08T10:01:27;100213.47;;;21.96;42.21
81397;BME280;70852;49.908;8.126;2023-08-08T10:03:54;100226.41;;;22.28;42.75
81397;BME280;70852;49.908;8.126;2023-08-08T10:06:23;100218.38;;;23.12;40.61
81397;BME280;70852;49.908;8.126;2023-08-08T10:08:51;100215.59;;;22.62;41.88
81397;BME280;70852;49.908;8.126;2023-08-08T10:11:17;100224.41;;;22.47;42.02
81397;BME280;70852;49.908;8.126;2023-08-08T10:13:50;100211.13;;;22.15;43.16
81397;BME280;70852;49.908;8.126;2023-08-08T10:16:18;100213.47;;;21.96;43.06
81397;BME280;70852;49.908;8.126;2023-08-08T10:18:55;100207.19;;;22.77;40.87
81397;BME280;70852;49.908;8.126;2023-08-08T10:21:25;100220.28;;;23.58;39.98
81397;BME280;70852;49.908;8.126;2023-08-08T10:24:09;100210.16;;;24.37;38.52
81397;BME280;70852;49.908;8.126;2023-08-08T10:26:57;100211.66;;;25.38;37.45
81397;BME280;70852;49.908;8.126;2023-08-08T10:29:29;100196.72;;;23.96;38.34
81397;BME280;70852;49.908;8.126;2023-08-08T10:32:06;100204.22;;;23.33;38.80
81397;BME280;70852;49.908;8.126;2023-08-08T10:34:39;100205.94;;;22.88;40.87
81397;BME280;70852;49.908;8.126;2023-08-08T10:37:11;100211.16;;;23.08;40.98
81397;BME280;70852;49.908;8.126;2023-08-08T10:39:50;100210.50;;;23.84;38.38
81397;BME280;70852;49.908;8.126;2023-08-08T10:42:18;100209.06;;;23.36;38.89
81397;BME280;70852;49.908;8.126;2023-08-08T10:44:54;100214.72;;;23.22;38.86
81397;BME280;70852;49.908;8.126;2023-08-08T10:47:23;100216.41;;;22.95;38.42
81397;BME280;70852;49.908;8.126;2023-08-08T10:49:59;100210.34;;;22.57;38.87
81397;BME280;70852;49.908;8.126;2023-08-08T10:52:25;100214.78;;;22.34;40.72
81397;BME280;70852;49.908;8.126;2023-08-08T10:54:58;100216.38;;;22.20;38.69
81397;BME280;70852;49.908;8.126;2023-08-08T10:57:25;100203.53;;;22.55;37.43
81397;BME280;70852;49.908;8.126;2023-08-08T10:59:50;100203.50;;;22.16;39.06
81397;BME280;70852;49.908;8.126;2023-08-08T11:02:16;100212.31;;;22.07;39.71
81397;BME280;70852;49.908;8.126;2023-08-08T11:04:43;100211.13;;;22.12;39.10
81397;BME280;70852;49.908;8.126;2023-08-08T11:07:09;100205.97;;;22.67;39.60
81397;BME280;70852;49.908;8.126;2023-08-08T11:09:36;100202.31;;;22.38;38.10
81397;BME280;70852;49.908;8.126;2023-08-08T11:12:04;100212.72;;;21.99;39.47
81397;BME280;70852;49.908;8.126;2023-08-08T11:14:37;100208.59;;;21.75;40.49
81397;BME280;70852;49.908;8.126;2023-08-08T11:17:05;100208.69;;;22.00;40.39
81397;BME280;70852;49.908;8.126;2023-08-08T11:19:39;100206.22;;;21.87;40.50
81397;BME280;70852;49.908;8.126;2023-08-08T11:22:09;100205.13;;;22.31;39.82
81397;BME280;70852;49.908;8.126;2023-08-08T11:24:36;100198.31;;;22.50;40.37
81397;BME280;70852;49.908;8.126;2023-08-08T11:27:02;100196.22;;;23.21;39.54
81397;BME280;70852;49.908;8.126;2023-08-08T11:29:27;100197.44;;;23.17;36.95
81397;BME280;70852;49.908;8.126;2023-08-08T11:31:56;100194.19;;;23.29;36.88
81397;BME280;70852;49.908;8.126;2023-08-08T11:34:21;100188.81;;;23.66;36.14
81397;BME280;70852;49.908;8.126;2023-08-08T11:36:47;100190.47;;;23.57;37.12
81397;BME280;70852;49.908;8.126;2023-08-08T11:39:13;100199.38;;;23.52;37.39
81397;BME280;70852;49.908;8.126;2023-08-08T11:41:42;100193.69;;;23.62;36.67
81397;BME280;70852;49.908;8.126;2023-08-08T11:44:12;100194.19;;;23.29;36.92
81397;BME280;70852;49.908;8.126;2023-08-08T11:46:45;100194.69;;;22.74;37.29
81397;BME280;70852;49.908;8.126;2023-08-08T11:49:13;100191.88;;;22.85;37.50
81397;BME280;70852;49.908;8.126;2023-08-08T11:51:39;100193.47;;;22.50;36.50
81397;BME280;70852;49.908;8.126;2023-08-08T11:54:04;100193.88;;;22.70;36.17
81397;BME280;70852;49.908;8.126;2023-08-08T11:56:33;100190.25;;;22.98;37.04
81397;BME280;70852;49.908;8.126;2023-08-08T11:58:59;100190.66;;;22.89;37.36
81397;BME280;70852;49.908;8.126;2023-08-08T12:01:28;100194.69;;;22.92;36.77
81397;BME280;70852;49.908;8.126;2023-08-08T12:04:03;100197.88;;;22.58;36.98
81397;BME280;70852;49.908;8.126;2023-08-08T12:06:29;100192.28;;;22.34;36.29
81397;BME280;70852;49.908;8.126;2023-08-08T12:08:57;100180.13;;;21.94;37.47
81397;BME280;70852;49.908;8.126;2023-08-08T12:11:24;100176.19;;;22.16;37.33
81397;BME280;70852;49.908;8.126;2023-08-08T12:13:59;100173.78;;;22.22;37.54
81397;BME280;70852;49.908;8.126;2023-08-08T12:16:30;100189.84;;;22.68;36.80
81397;BME280;70852;49.908;8.126;2023-08-08T12:19:01;100182.25;;;22.75;37.61
81397;BME280;70852;49.908;8.126;2023-08-08T12:21:29;100181.81;;;22.48;36.02
81397;BME280;70852;49.908;8.126;2023-08-08T12:23:57;100181.81;;;22.70;37.17
81397;BME280;70852;49.908;8.126;2023-08-08T12:26:25;100172.56;;;22.73;37.52
81397;BME280;70852;49.908;8.126;2023-08-08T12:28:50;100185.44;;;22.63;37.59
81397;BME280;70852;49.908;8.126;2023-08-08T12:31:18;100183.44;;;22.63;37.84
81397;BME280;70852;49.908;8.126;2023-08-08T12:33:45;100172.19;;;22.21;39.15
81397;BME280;70852;49.908;8.126;2023-08-08T12:36:13;100176.84;;;21.67;38.30
81397;BME280;70852;49.908;8.126;2023-08-08T12:38:43;100190.44;;;21.51;38.87
81397;BME280;70852;49.908;8.126;2023-08-08T12:41:10;100178.00;;;21.48;38.16
81397;BME280;70852;49.908;8.126;2023-08-08T12:43:36;100184.91;;;21.76;36.47
81397;BME280;70852;49.908;8.126;2023-08-08T12:46:01;100180.94;;;21.95;36.81
81397;BME280;70852;49.908;8.126;2023-08-08T12:48:29;100183.34;;;21.96;36.82
81397;BME280;70852;49.908;8.126;2023-08-08T12:50:56;100187.41;;;21.99;37.55
81397;BME280;70852;49.908;8.126;2023-08-08T12:53:24;100185.34;;;21.81;38.10
81397;BME280;70852;49.908;8.126;2023-08-08T12:55:54;100169.69;;;21.95;36.88
81397;BME280;70852;49.908;8.126;2023-08-08T12:58:19;100173.16;;;21.45;37.92
81397;BME280;70852;49.908;8.126;2023-08-08T13:00:45;100183.63;;;21.52;38.59
81397;BME280;70852;49.908;8.126;2023-08-08T13:03:10;100169.19;;;21.57;38.75
81397;BME280;70852;49.908;8.126;2023-08-08T13:05:40;100161.63;;;21.86;38.81
81397;BME280;70852;49.908;8.126;2023-08-08T13:08:05;100163.31;;;22.19;37.52
81397;BME280;70852;49.908;8.126;2023-08-08T13:10:33;100155.31;;;22.46;38.43
81397;BME280;70852;49.908;8.126;2023-08-08T13:12:59;100151.69;;;22.13;38.37
81397;BME280;70852;49.908;8.126;2023-08-08T13:15:26;100155.28;;;22.49;36.94
81397;BME280;70852;49.908;8.126;2023-08-08T13:17:51;100150.72;;;23.23;34.17
81397;BME280;70852;49.908;8.126;2023-08-08T13:20:20;100146.25;;;23.36;34.68
81397;BME280;70852;49.908;8.126;2023-08-08T13:22:48;100141.69;;;23.70;34.83
81397;BME280;70852;49.908;8.126;2023-08-08T13:25:13;100130.94;;;23.41;35.85
81397;BME280;70852;49.908;8.126;2023-08-08T13:27:40;100140.19;;;23.52;36.27
81397;BME280;70852;49.908;8.126;2023-08-08T13:30:07;100136.38;;;22.85;36.18
81397;BME280;70852;49.908;8.126;2023-08-08T13:32:33;100145.25;;;23.78;34.61
81397;BME280;70852;49.908;8.126;2023-08-08T13:34:58;100140.44;;;23.75;33.77
81397;BME280;70852;49.908;8.126;2023-08-08T13:37:26;100143.19;;;23.89;35.24
81397;BME280;70852;49.908;8.126;2023-08-08T13:39:54;100149.69;;;23.79;35.00
81397;BME280;70852;49.908;8.126;2023-08-08T13:42:19;100149.97;;;23.99;36.22
81397;BME280;70852;49.908;8.126;2023-08-08T13:44:47;100143.84;;;23.38;36.20
81397;BME280;70852;49.908;8.126;2023-08-08T13:47:12;100139.91;;;23.11;36.47